Suwannee River — WCZ7163 — position and weather

sailwx.info

Track history (hours):
 
Tides and Currents Weather Stations Pressure Air Temp Water Temp Dewpoint Dewpoint Depression Visibility Wind Speed Wind Dir Waves Ship Positions

Suwannee River

Owner: Seabulk Towing, Inc., Tampa, FL. More information available from US FCC via Universal Licensing System and Coast Guard Vessel Documentation Center.

Last reported at 2017-Nov-20 00:31 UTC. Time now 2017-Nov-20 20:58 UTC.
Position N 27°54' W 082°26'.

Length 28 m.

Type: Tug. MMSI: 366943490.

Date/timePositionNaut miles runAvg speedWind from/ knotsBaromVisibWave heightAir tempDewpointWater temp
2017-Nov-20 00:31N 27°54' W 082°26'1 2.9
2017-Nov-20 00:01N 27°55' W 082°27'0 0.0
2017-Nov-19 23:30N 27°55' W 082°27'0 0.0
2017-Nov-19 23:01N 27°55' W 082°27'0 0.0
2017-Nov-19 22:31N 27°55' W 082°27'0 0.0
2017-Nov-19 22:01N 27°55' W 082°27'0 0.0
2017-Nov-19 21:30N 27°55' W 082°27'0 0.0
2017-Nov-19 21:01N 27°55' W 082°27'0 0.0
2017-Nov-19 20:30N 27°55' W 082°27'0 0.0
2017-Nov-19 20:01N 27°55' W 082°27'0 0.0
2017-Nov-19 19:30N 27°55' W 082°27'0 0.0
2017-Nov-19 19:01N 27°55' W 082°27'0 0.0
2017-Nov-19 18:31N 27°55' W 082°27'0 0.0
2017-Nov-19 18:01N 27°55' W 082°27'0 0.8
2017-Nov-19 17:31N 27°55' W 082°27'0 0.3
2017-Nov-19 17:00N 27°55' W 082°27'0 0.1
2017-Nov-19 16:31N 27°55' W 082°27'0 1.0
2017-Nov-19 16:00N 27°55' W 082°27'0 0.0
2017-Nov-19 15:31N 27°55' W 082°27'0 0.0
2017-Nov-19 15:00N 27°55' W 082°27'0 0.0
2017-Nov-19 14:31N 27°55' W 082°27'0 0.0
2017-Nov-19 14:01N 27°55' W 082°27'0 0.0
2017-Nov-19 13:31N 27°55' W 082°27'0 0.0
2017-Nov-19 13:00N 27°55' W 082°27'0 0.0
2017-Nov-19 12:30N 27°55' W 082°27'0 0.0
2017-Nov-19 12:01N 27°55' W 082°27'0 0.0
2017-Nov-19 11:31N 27°55' W 082°27'0 0.0
2017-Nov-19 11:01N 27°55' W 082°27'0 0.0
2017-Nov-19 10:30N 27°55' W 082°27'0 0.0
2017-Nov-19 10:01N 27°55' W 082°27'0 0.0
2017-Nov-19 09:30N 27°55' W 082°27'1 2.1
2017-Nov-19 09:00N 27°55' W 082°26'0 1.0
2017-Nov-19 08:31N 27°54' W 082°26'0 0.5
2017-Nov-19 08:01N 27°54' W 082°26'0 0.0
2017-Nov-19 07:30N 27°54' W 082°26'0 0.0
2017-Nov-19 07:01N 27°54' W 082°26'0 0.0
2017-Nov-19 06:31N 27°54' W 082°26'0 0.0
2017-Nov-19 06:00N 27°54' W 082°26'1 1.3
2017-Nov-19 05:31N 27°54' W 082°25'0 0.4
2017-Nov-19 05:00N 27°54' W 082°25'1 2.2
2017-Nov-19 04:31N 27°54' W 082°26'2 4.4
2017-Nov-19 04:00N 27°52' W 082°27'4 8.1
2017-Nov-19 03:31N 27°48' W 082°29'4 7.9
2017-Nov-19 03:00N 27°45' W 082°32'7 0.6
2017-Nov-18 14:10N 27°38' W 082°34'0 0.9
2017-Nov-18 13:59N 27°38' W 082°34'0 0.1
2017-Nov-18 13:30N 27°38' W 082°34'3 2.6
2017-Nov-18 12:18N 27°41' W 082°35'2 7.3
2017-Nov-18 12:00N 27°42' W 082°33'510.0
2017-Nov-18 11:31N 27°47' W 082°31'510.5
2017-Nov-18 11:00N 27°50' W 082°27'5 9.8
2017-Nov-18 10:31N 27°55' W 082°27'0 0.2
2017-Nov-18 10:01N 27°55' W 082°27'0 0.0
2017-Nov-18 09:31N 27°55' W 082°27'0 0.0
2017-Nov-18 09:01N 27°55' W 082°27'0 0.0
2017-Nov-18 08:30N 27°55' W 082°27'0 0.0
2017-Nov-18 08:00N 27°55' W 082°27'0 0.0
2017-Nov-18 07:31N 27°55' W 082°27'0 0.0
2017-Nov-18 07:01N 27°55' W 082°27'0 0.0
2017-Nov-18 06:31N 27°55' W 082°27'0 0.0
2017-Nov-18 06:00N 27°55' W 082°27'0 0.0
2017-Nov-18 05:31N 27°55' W 082°27'0 0.0
2017-Nov-18 05:01N 27°55' W 082°27'0 0.0
2017-Nov-18 04:30N 27°55' W 082°27'0 0.0
2017-Nov-18 04:01N 27°55' W 082°27'0 0.0
2017-Nov-18 03:31N 27°55' W 082°27'0 0.0
2017-Nov-18 03:01N 27°55' W 082°27'0 0.0
2017-Nov-18 02:30N 27°55' W 082°27'0 0.0
2017-Nov-18 02:01N 27°55' W 082°27'0 0.0
2017-Nov-18 01:31N 27°55' W 082°27'0 0.0
2017-Nov-18 01:01N 27°55' W 082°27'0 0.0
2017-Nov-18 00:31N 27°55' W 082°27'0 0.0
2017-Nov-18 00:00N 27°55' W 082°27'0 0.0
2017-Nov-17 23:31N 27°55' W 082°27'0 0.0
2017-Nov-17 23:00N 27°55' W 082°27'0 0.0
2017-Nov-17 22:30N 27°55' W 082°27'0 0.0
2017-Nov-17 22:01N 27°55' W 082°27'0 0.0
2017-Nov-17 21:30N 27°55' W 082°27'0 0.0
2017-Nov-17 21:00N 27°55' W 082°27'0 0.0
2017-Nov-17 20:31N 27°55' W 082°27'0 0.0
2017-Nov-17 20:01N 27°55' W 082°27'0 0.0
2017-Nov-17 19:31N 27°55' W 082°27'0 0.0
2017-Nov-17 19:00N 27°55' W 082°27'0 0.0
2017-Nov-17 18:31N 27°55' W 082°27'0 0.0
2017-Nov-17 18:01N 27°55' W 082°27'1 2.3
2017-Nov-17 17:30N 27°55' W 082°26'1 1.1
2017-Nov-17 17:00N 27°55' W 082°25'0 0.2
2017-Nov-17 16:30N 27°55' W 082°25'1 1.0
2017-Nov-17 16:01N 27°55' W 082°26'1 2.4
2017-Nov-17 15:31N 27°55' W 082°27'0 0.0
2017-Nov-17 15:00N 27°55' W 082°27'0 0.0
2017-Nov-17 14:30N 27°55' W 082°27'0 0.0
2017-Nov-17 14:00N 27°55' W 082°27'0 0.0
2017-Nov-17 13:31N 27°55' W 082°27'0 0.0
2017-Nov-17 13:01N 27°55' W 082°27'0 0.0
2017-Nov-17 12:30N 27°55' W 082°27'0 0.0
2017-Nov-17 12:01N 27°55' W 082°27'0 0.0
2017-Nov-17 11:31N 27°55' W 082°27'0 0.0
2017-Nov-17 11:01N 27°55' W 082°27'0 0.0
2017-Nov-17 10:30N 27°55' W 082°27'0 0.0
2017-Nov-17 10:00N 27°55' W 082°27'0 0.0
2017-Nov-17 09:30N 27°55' W 082°27'0 0.0
2017-Nov-17 09:00N 27°55' W 082°27'0 0.0
2017-Nov-17 08:31N 27°55' W 082°27'0 0.0
2017-Nov-17 08:01N 27°55' W 082°27'0 0.0
2017-Nov-17 07:30N 27°55' W 082°27'0 0.0
2017-Nov-17 07:00N 27°55' W 082°27'0 0.0
2017-Nov-17 06:31N 27°55' W 082°27'2 3.7
2017-Nov-17 06:00N 27°54' W 082°26'3 6.0
2017-Nov-17 05:31N 27°51' W 082°24'1 1.3
2017-Nov-17 04:56N 27°51' W 082°24'2 4.8
2017-Nov-17 04:31N 27°51' W 082°26'4 7.8
2017-Nov-17 04:01N 27°55' W 082°27'1 1.3
2017-Nov-17 03:31N 27°55' W 082°27'0 0.0
2017-Nov-17 03:01N 27°55' W 082°27'0 0.0
2017-Nov-17 02:30N 27°55' W 082°27'0 0.0
2017-Nov-17 02:01N 27°55' W 082°27'0 0.0
2017-Nov-17 01:30N 27°55' W 082°27'0 0.0
2017-Nov-17 01:00N 27°55' W 082°27'0 0.0
2017-Nov-17 00:30N 27°55' W 082°27'0 0.0
2017-Nov-17 00:01N 27°55' W 082°27'0 0.0
2017-Nov-16 23:30N 27°55' W 082°27'0 0.8
2017-Nov-16 23:01N 27°55' W 082°27'0 0.4
2017-Nov-16 22:31N 27°55' W 082°27'0 0.6
2017-Nov-16 22:00N 27°55' W 082°27'0 0.0
2017-Nov-16 21:30N 27°55' W 082°27'0 0.0
2017-Nov-16 21:00N 27°55' W 082°27'0 0.0
2017-Nov-16 20:31N 27°55' W 082°27'0 0.0
2017-Nov-16 20:01N 27°55' W 082°27'0 0.0
2017-Nov-16 19:31N 27°55' W 082°27'0 0.0
2017-Nov-16 19:00N 27°55' W 082°27'1 1.4
2017-Nov-16 18:31N 27°55' W 082°27'5 9.6
2017-Nov-16 18:00N 27°50' W 082°27'5 9.1
2017-Nov-16 17:30N 27°47' W 082°31'4 7.1
2017-Nov-16 17:00N 27°49' W 082°34'3 5.6
2017-Nov-16 16:30N 27°52' W 082°33'0 0.0
2017-Nov-16 16:00N 27°52' W 082°33'0 0.0
2017-Nov-16 15:31N 27°52' W 082°33'0 0.0
2017-Nov-16 15:01N 27°52' W 082°33'0 0.0
2017-Nov-16 14:31N 27°52' W 082°33'0 0.0
2017-Nov-16 14:01N 27°52' W 082°33'0 0.0
2017-Nov-16 13:30N 27°52' W 082°33'0 0.0
2017-Nov-16 13:00N 27°52' W 082°33'0 0.0
2017-Nov-16 12:30N 27°52' W 082°33'0 0.0
2017-Nov-16 12:01N 27°52' W 082°33'0 0.0
2017-Nov-16 11:30N 27°52' W 082°33'0 0.0
2017-Nov-16 11:00N 27°52' W 082°33'0 0.0
2017-Nov-16 10:31N 27°52' W 082°33'0 0.0
2017-Nov-16 10:00N 27°52' W 082°33'0 0.0
2017-Nov-16 09:31N 27°52' W 082°33'0 0.0
2017-Nov-16 09:01N 27°52' W 082°33'0 0.0
2017-Nov-16 08:31N 27°52' W 082°33'0 0.0
2017-Nov-16 08:00N 27°52' W 082°33'0 0.0
2017-Nov-16 07:31N 27°52' W 082°33'0 0.0
2017-Nov-16 07:01N 27°52' W 082°33'0 0.0
2017-Nov-16 06:30N 27°52' W 082°33'0 0.4
2017-Nov-16 06:01N 27°52' W 082°33'0 0.0
2017-Nov-16 05:30N 27°52' W 082°33'1 2.9
2017-Nov-16 05:00N 27°50' W 082°34'4 7.6
2017-Nov-16 04:28N 27°47' W 082°31'510.0
2017-Nov-16 03:59N 27°51' W 082°27'510.0
2017-Nov-16 03:31N 27°55' W 082°27'0 0.1
2017-Nov-16 03:00N 27°55' W 082°27'0 0.0
2017-Nov-16 02:31N 27°55' W 082°27'0 0.0
2017-Nov-16 02:01N 27°55' W 082°27'0 0.0
2017-Nov-16 01:31N 27°55' W 082°27'0 0.0
2017-Nov-16 01:01N 27°55' W 082°27'0 0.0
2017-Nov-16 00:30N 27°55' W 082°27'0 0.0
2017-Nov-16 00:01N 27°55' W 082°27'0 0.0
2017-Nov-15 23:31N 27°55' W 082°27'1 2.4
2017-Nov-15 23:00N 27°54' W 082°26'1 2.7
2017-Nov-15 22:30N 27°55' W 082°25'1 1.4
2017-Nov-15 22:00N 27°55' W 082°26'3 5.8
2017-Nov-15 21:31N 27°52' W 082°27'3 6.5
2017-Nov-15 21:00N 27°49' W 082°26'2 1.3
2017-Nov-15 19:40N 27°48' W 082°25'0 0.9
2017-Nov-15 19:29N 27°48' W 082°25'4 8.0
2017-Nov-15 19:00N 27°48' W 082°29'5 7.0
2017-Nov-15 18:19N 27°50' W 082°34'2 5.1
2017-Nov-15 18:01N 27°52' W 082°33'0 0.0
2017-Nov-15 17:30N 27°52' W 082°33'0 0.0
2017-Nov-15 17:01N 27°52' W 082°33'0 0.0
2017-Nov-15 16:31N 27°52' W 082°33'0 0.0
2017-Nov-15 16:01N 27°52' W 082°33'0 0.0
2017-Nov-15 15:31N 27°52' W 082°33'0 0.0
2017-Nov-15 15:01N 27°52' W 082°33'0 0.0
2017-Nov-15 14:30N 27°52' W 082°33'0 0.5
2017-Nov-15 14:00N 27°52' W 082°33'0 0.0
2017-Nov-15 13:30N 27°52' W 082°33'2 2.4
2017-Nov-15 12:43N 27°50' W 082°34'1 4.0
2017-Nov-15 12:25N 27°49' W 082°34'4 8.6
2017-Nov-15 12:00N 27°47' W 082°31'5 9.9
2017-Nov-15 11:30N 27°51' W 082°27'5 9.1
2017-Nov-15 11:01N 27°55' W 082°27'0 0.2
2017-Nov-15 10:31N 27°55' W 082°27'0 0.1
2017-Nov-15 10:01N 27°55' W 082°27'0 0.5
2017-Nov-15 09:31N 27°55' W 082°27'0 0.0
2017-Nov-15 09:00N 27°55' W 082°27'0 0.0
2017-Nov-15 08:30N 27°55' W 082°27'0 0.0
2017-Nov-15 08:01N 27°55' W 082°27'0 0.0
2017-Nov-15 07:31N 27°55' W 082°27'0 0.0
2017-Nov-15 07:00N 27°55' W 082°27'0 0.0
2017-Nov-15 06:30N 27°55' W 082°27'0 0.0
2017-Nov-15 06:00N 27°55' W 082°27'0 0.0
2017-Nov-15 05:30N 27°55' W 082°27'0 0.0
2017-Nov-15 05:00N 27°55' W 082°27'0 0.0
2017-Nov-15 04:30N 27°55' W 082°27'0 0.0
2017-Nov-15 04:01N 27°55' W 082°27'0 0.0
2017-Nov-15 03:30N 27°55' W 082°27'0 0.0
2017-Nov-15 03:00N 27°55' W 082°27'0 0.0
2017-Nov-15 02:31N 27°55' W 082°27'0 0.0
2017-Nov-15 02:01N 27°55' W 082°27'1 1.2
2017-Nov-15 01:31N 27°55' W 082°27'611.1
2017-Nov-15 00:59N 27°49' W 082°27'2 2.0
2017-Nov-15 00:09N 27°48' W 082°25'211.3
2017-Nov-15 00:00N 27°49' W 082°27'610.2
2017-Nov-14 23:28N 27°45' W 082°32'11 0.3
2017-Nov-13 02:01N 27°55' W 082°27'0 0.0
2017-Nov-13 01:31N 27°55' W 082°27'0 0.0
2017-Nov-13 01:00N 27°55' W 082°27'0 0.0
2017-Nov-13 00:31N 27°55' W 082°27'0 0.0
2017-Nov-13 00:01N 27°55' W 082°27'0 0.0
2017-Nov-12 23:31N 27°55' W 082°27'0 0.0
2017-Nov-12 23:01N 27°55' W 082°27'0 0.0
2017-Nov-12 22:31N 27°55' W 082°27'0 0.0
2017-Nov-12 22:01N 27°55' W 082°27'0 0.0
2017-Nov-12 21:31N 27°55' W 082°27'0 0.0
2017-Nov-12 21:01N 27°55' W 082°27'0 0.0
2017-Nov-12 20:30N 27°55' W 082°27'0 0.0
2017-Nov-12 20:01N 27°55' W 082°27'0 0.0
2017-Nov-12 19:30N 27°55' W 082°27'0 0.0
2017-Nov-12 19:01N 27°55' W 082°27'0 0.0
2017-Nov-12 18:30N 27°55' W 082°27'0 0.0
2017-Nov-12 18:00N 27°55' W 082°27'0 0.0
2017-Nov-12 17:30N 27°55' W 082°27'0 0.0
2017-Nov-12 17:01N 27°55' W 082°27'0 0.0
2017-Nov-12 16:31N 27°55' W 082°27'0 0.0
2017-Nov-12 16:01N 27°55' W 082°27'0 0.0
2017-Nov-12 15:30N 27°55' W 082°27'0 0.0
2017-Nov-12 15:01N 27°55' W 082°27'0 0.0
2017-Nov-12 14:30N 27°55' W 082°27'0 0.0
2017-Nov-12 14:00N 27°55' W 082°27'0 0.0
2017-Nov-12 13:30N 27°55' W 082°27'0 0.0
2017-Nov-12 13:01N 27°55' W 082°27'0 0.0
2017-Nov-12 12:31N 27°55' W 082°27'0 0.0
2017-Nov-12 12:01N 27°55' W 082°27'0 0.0
2017-Nov-12 11:31N 27°55' W 082°27'0 0.0
2017-Nov-12 11:00N 27°55' W 082°27'0 0.0
2017-Nov-12 10:30N 27°55' W 082°27'0 0.0
2017-Nov-12 10:01N 27°55' W 082°27'0 0.0
2017-Nov-12 09:31N 27°55' W 082°27'0 0.0
2017-Nov-12 09:01N 27°55' W 082°27'0 0.0
2017-Nov-12 08:31N 27°55' W 082°27'0 0.0
2017-Nov-12 08:01N 27°55' W 082°27'0 0.0
2017-Nov-12 07:31N 27°55' W 082°27'0 0.0
2017-Nov-12 07:00N 27°55' W 082°27'0 0.0
2017-Nov-12 06:31N 27°55' W 082°27'0 0.0
2017-Nov-12 06:00N 27°55' W 082°27'0 0.0
2017-Nov-12 05:31N 27°55' W 082°27'0 0.0
2017-Nov-12 05:00N 27°55' W 082°27'0 0.0
2017-Nov-12 04:31N 27°55' W 082°27'0 0.0
2017-Nov-12 04:00N 27°55' W 082°27'0 0.0
2017-Nov-12 03:30N 27°55' W 082°27'0 0.0
2017-Nov-12 03:01N 27°55' W 082°27'0 0.0
2017-Nov-12 02:30N 27°55' W 082°27'0 0.0
2017-Nov-12 02:01N 27°55' W 082°27'0 0.0
2017-Nov-12 01:30N 27°55' W 082°27'0 0.0
2017-Nov-12 01:01N 27°55' W 082°27'0 0.0
2017-Nov-12 00:30N 27°55' W 082°27'0 0.0
2017-Nov-12 00:01N 27°55' W 082°27'0 0.0
2017-Nov-11 23:30N 27°55' W 082°27'0 0.0
2017-Nov-11 23:00N 27°55' W 082°27'0 0.0
2017-Nov-11 22:31N 27°55' W 082°27'0 0.6
2017-Nov-11 22:00N 27°55' W 082°27'0 0.0
2017-Nov-11 21:30N 27°55' W 082°27'0 0.0
2017-Nov-11 21:00N 27°55' W 082°27'0 0.0
2017-Nov-11 20:31N 27°55' W 082°27'0 0.0
2017-Nov-11 20:01N 27°55' W 082°27'0 0.0
2017-Nov-11 19:31N 27°55' W 082°27'0 0.0
2017-Nov-11 19:00N 27°55' W 082°27'0 0.0
2017-Nov-11 18:30N 27°55' W 082°27'0 0.0
2017-Nov-11 18:00N 27°55' W 082°27'0 0.1
2017-Nov-11 17:31N 27°55' W 082°27'1 1.3
2017-Nov-11 17:00N 27°55' W 082°26'4 7.5
2017-Nov-11 16:30N 27°51' W 082°26'3 2.9
2017-Nov-11 15:39N 27°51' W 082°24'0 2.4
2017-Nov-11 15:28N 27°51' W 082°24'0 0.0
2017-Nov-11 15:00N 27°51' W 082°24'3 5.7
2017-Nov-11 14:30N 27°50' W 082°27'5 9.4
2017-Nov-11 14:01N 27°54' W 082°26'0 0.0
2017-Nov-11 13:30N 27°54' W 082°26'0 0.0
2017-Nov-11 13:01N 27°54' W 082°26'0 0.0
2017-Nov-11 12:31N 27°54' W 082°26'0 0.0
2017-Nov-11 12:01N 27°54' W 082°26'0 0.0
2017-Nov-11 11:30N 27°54' W 082°26'0 0.0
2017-Nov-11 11:01N 27°54' W 082°26'1 1.1
2017-Nov-11 10:30N 27°55' W 082°26'1 2.6
2017-Nov-11 10:00N 27°53' W 082°26'1 1.2
2017-Nov-11 09:30N 27°53' W 082°27'2 4.8
2017-Nov-11 09:00N 27°55' W 082°27'0 0.2
2017-Nov-11 08:31N 27°55' W 082°27'0 0.0
2017-Nov-11 08:00N 27°55' W 082°27'0 0.0
2017-Nov-11 07:31N 27°55' W 082°27'0 0.0
2017-Nov-11 07:00N 27°55' W 082°27'0 0.0
2017-Nov-11 06:31N 27°55' W 082°27'0 0.0
2017-Nov-11 06:00N 27°55' W 082°27'0 0.0
2017-Nov-11 05:31N 27°55' W 082°27'0 0.0
2017-Nov-11 05:00N 27°55' W 082°27'0 0.0
2017-Nov-11 04:31N 27°55' W 082°27'0 0.0
2017-Nov-11 04:01N 27°55' W 082°27'0 0.0
2017-Nov-11 03:31N 27°55' W 082°27'0 0.0
2017-Nov-11 03:01N 27°55' W 082°27'0 0.0
2017-Nov-11 02:30N 27°55' W 082°27'0 0.0
2017-Nov-11 02:01N 27°55' W 082°27'0 0.0
2017-Nov-11 01:31N 27°55' W 082°27'0 0.0
2017-Nov-11 01:00N 27°55' W 082°27'0 0.0
2017-Nov-11 00:30N 27°55' W 082°27'0 0.0
2017-Nov-11 00:00N 27°55' W 082°27'0 0.0
2017-Nov-10 23:30N 27°55' W 082°27'0 0.0
2017-Nov-10 23:01N 27°55' W 082°27'0 0.0
2017-Nov-10 22:30N 27°55' W 082°27'0 0.0
2017-Nov-10 22:01N 27°55' W 082°27'0 0.0
2017-Nov-10 21:31N 27°55' W 082°27'1 2.0
2017-Nov-10 21:01N 27°54' W 082°26'5 8.8
2017-Nov-10 20:30N 27°50' W 082°27'3 3.5
2017-Nov-10 19:42N 27°48' W 082°25'1 3.5
2017-Nov-10 19:29N 27°48' W 082°25'610.9
2017-Nov-10 18:57N 27°47' W 082°31'5 0.3
2017-Nov-10 02:37N 27°42' W 082°33'1 8.7
2017-Nov-10 02:30N 27°43' W 082°33'4 8.0
2017-Nov-10 02:00N 27°47' W 082°31'4 7.7
2017-Nov-10 01:30N 27°48' W 082°27'4 7.8
2017-Nov-10 01:00N 27°52' W 082°27'  
Track history (hours):
 
Tides and Currents Weather Stations Pressure Air Temp Water Temp Dewpoint Dewpoint Depression Visibility Wind Speed Wind Dir Waves Ship Positions

Suwannee River

Owner: Seabulk Towing, Inc., Tampa, FL. More information available from US FCC via Universal Licensing System and Coast Guard Vessel Documentation Center.

Last reported at 2017-Nov-20 00:31 UTC. Time now 2017-Nov-20 20:58 UTC.
Position N 27°54' W 082°26'.

Length 28 m.

Type: Tug. MMSI: 366943490.

Date/timePositionNaut miles runAvg speedWind from/ knotsBaromVisibWave heightAir tempDewpointWater temp
2017-Nov-20 00:31N 27°54' W 082°26'1 2.9
2017-Nov-20 00:01N 27°55' W 082°27'0 0.0
2017-Nov-19 23:30N 27°55' W 082°27'0 0.0
2017-Nov-19 23:01N 27°55' W 082°27'0 0.0
2017-Nov-19 22:31N 27°55' W 082°27'0 0.0
2017-Nov-19 22:01N 27°55' W 082°27'0 0.0
2017-Nov-19 21:30N 27°55' W 082°27'0 0.0
2017-Nov-19 21:01N 27°55' W 082°27'0 0.0
2017-Nov-19 20:30N 27°55' W 082°27'0 0.0
2017-Nov-19 20:01N 27°55' W 082°27'0 0.0
2017-Nov-19 19:30N 27°55' W 082°27'0 0.0
2017-Nov-19 19:01N 27°55' W 082°27'0 0.0
2017-Nov-19 18:31N 27°55' W 082°27'0 0.0
2017-Nov-19 18:01N 27°55' W 082°27'0 0.8
2017-Nov-19 17:31N 27°55' W 082°27'0 0.3
2017-Nov-19 17:00N 27°55' W 082°27'0 0.1
2017-Nov-19 16:31N 27°55' W 082°27'0 1.0
2017-Nov-19 16:00N 27°55' W 082°27'0 0.0
2017-Nov-19 15:31N 27°55' W 082°27'0 0.0
2017-Nov-19 15:00N 27°55' W 082°27'0 0.0
2017-Nov-19 14:31N 27°55' W 082°27'0 0.0
2017-Nov-19 14:01N 27°55' W 082°27'0 0.0
2017-Nov-19 13:31N 27°55' W 082°27'0 0.0
2017-Nov-19 13:00N 27°55' W 082°27'0 0.0
2017-Nov-19 12:30N 27°55' W 082°27'0 0.0
2017-Nov-19 12:01N 27°55' W 082°27'0 0.0
2017-Nov-19 11:31N 27°55' W 082°27'0 0.0
2017-Nov-19 11:01N 27°55' W 082°27'0 0.0
2017-Nov-19 10:30N 27°55' W 082°27'0 0.0
2017-Nov-19 10:01N 27°55' W 082°27'0 0.0
2017-Nov-19 09:30N 27°55' W 082°27'1 2.1
2017-Nov-19 09:00N 27°55' W 082°26'0 1.0
2017-Nov-19 08:31N 27°54' W 082°26'0 0.5
2017-Nov-19 08:01N 27°54' W 082°26'0 0.0
2017-Nov-19 07:30N 27°54' W 082°26'0 0.0
2017-Nov-19 07:01N 27°54' W 082°26'0 0.0
2017-Nov-19 06:31N 27°54' W 082°26'0 0.0
2017-Nov-19 06:00N 27°54' W 082°26'1 1.3
2017-Nov-19 05:31N 27°54' W 082°25'0 0.4
2017-Nov-19 05:00N 27°54' W 082°25'1 2.2
2017-Nov-19 04:31N 27°54' W 082°26'2 4.4
2017-Nov-19 04:00N 27°52' W 082°27'4 8.1
2017-Nov-19 03:31N 27°48' W 082°29'4 7.9
2017-Nov-19 03:00N 27°45' W 082°32'7 0.6
2017-Nov-18 14:10N 27°38' W 082°34'0 0.9
2017-Nov-18 13:59N 27°38' W 082°34'0 0.1
2017-Nov-18 13:30N 27°38' W 082°34'3 2.6
2017-Nov-18 12:18N 27°41' W 082°35'2 7.3
2017-Nov-18 12:00N 27°42' W 082°33'510.0
2017-Nov-18 11:31N 27°47' W 082°31'510.5
2017-Nov-18 11:00N 27°50' W 082°27'5 9.8
2017-Nov-18 10:31N 27°55' W 082°27'0 0.2
2017-Nov-18 10:01N 27°55' W 082°27'0 0.0
2017-Nov-18 09:31N 27°55' W 082°27'0 0.0
2017-Nov-18 09:01N 27°55' W 082°27'0 0.0
2017-Nov-18 08:30N 27°55' W 082°27'0 0.0
2017-Nov-18 08:00N 27°55' W 082°27'0 0.0
2017-Nov-18 07:31N 27°55' W 082°27'0 0.0
2017-Nov-18 07:01N 27°55' W 082°27'0 0.0
2017-Nov-18 06:31N 27°55' W 082°27'0 0.0
2017-Nov-18 06:00N 27°55' W 082°27'0 0.0
2017-Nov-18 05:31N 27°55' W 082°27'0 0.0
2017-Nov-18 05:01N 27°55' W 082°27'0 0.0
2017-Nov-18 04:30N 27°55' W 082°27'0 0.0
2017-Nov-18 04:01N 27°55' W 082°27'0 0.0
2017-Nov-18 03:31N 27°55' W 082°27'0 0.0
2017-Nov-18 03:01N 27°55' W 082°27'0 0.0
2017-Nov-18 02:30N 27°55' W 082°27'0 0.0
2017-Nov-18 02:01N 27°55' W 082°27'0 0.0
2017-Nov-18 01:31N 27°55' W 082°27'0 0.0
2017-Nov-18 01:01N 27°55' W 082°27'0 0.0
2017-Nov-18 00:31N 27°55' W 082°27'0 0.0
2017-Nov-18 00:00N 27°55' W 082°27'0 0.0
2017-Nov-17 23:31N 27°55' W 082°27'0 0.0
2017-Nov-17 23:00N 27°55' W 082°27'0 0.0
2017-Nov-17 22:30N 27°55' W 082°27'0 0.0
2017-Nov-17 22:01N 27°55' W 082°27'0 0.0
2017-Nov-17 21:30N 27°55' W 082°27'0 0.0
2017-Nov-17 21:00N 27°55' W 082°27'0 0.0
2017-Nov-17 20:31N 27°55' W 082°27'0 0.0
2017-Nov-17 20:01N 27°55' W 082°27'0 0.0
2017-Nov-17 19:31N 27°55' W 082°27'0 0.0
2017-Nov-17 19:00N 27°55' W 082°27'0 0.0
2017-Nov-17 18:31N 27°55' W 082°27'0 0.0
2017-Nov-17 18:01N 27°55' W 082°27'1 2.3
2017-Nov-17 17:30N 27°55' W 082°26'1 1.1
2017-Nov-17 17:00N 27°55' W 082°25'0 0.2
2017-Nov-17 16:30N 27°55' W 082°25'1 1.0
2017-Nov-17 16:01N 27°55' W 082°26'1 2.4
2017-Nov-17 15:31N 27°55' W 082°27'0 0.0
2017-Nov-17 15:00N 27°55' W 082°27'0 0.0
2017-Nov-17 14:30N 27°55' W 082°27'0 0.0
2017-Nov-17 14:00N 27°55' W 082°27'0 0.0
2017-Nov-17 13:31N 27°55' W 082°27'0 0.0
2017-Nov-17 13:01N 27°55' W 082°27'0 0.0
2017-Nov-17 12:30N 27°55' W 082°27'0 0.0
2017-Nov-17 12:01N 27°55' W 082°27'0 0.0
2017-Nov-17 11:31N 27°55' W 082°27'0 0.0
2017-Nov-17 11:01N 27°55' W 082°27'0 0.0
2017-Nov-17 10:30N 27°55' W 082°27'0 0.0
2017-Nov-17 10:00N 27°55' W 082°27'0 0.0
2017-Nov-17 09:30N 27°55' W 082°27'0 0.0
2017-Nov-17 09:00N 27°55' W 082°27'0 0.0
2017-Nov-17 08:31N 27°55' W 082°27'0 0.0
2017-Nov-17 08:01N 27°55' W 082°27'0 0.0
2017-Nov-17 07:30N 27°55' W 082°27'0 0.0
2017-Nov-17 07:00N 27°55' W 082°27'0 0.0
2017-Nov-17 06:31N 27°55' W 082°27'2 3.7
2017-Nov-17 06:00N 27°54' W 082°26'3 6.0
2017-Nov-17 05:31N 27°51' W 082°24'1 1.3
2017-Nov-17 04:56N 27°51' W 082°24'2 4.8
2017-Nov-17 04:31N 27°51' W 082°26'4 7.8
2017-Nov-17 04:01N 27°55' W 082°27'1 1.3
2017-Nov-17 03:31N 27°55' W 082°27'0 0.0
2017-Nov-17 03:01N 27°55' W 082°27'0 0.0
2017-Nov-17 02:30N 27°55' W 082°27'0 0.0
2017-Nov-17 02:01N 27°55' W 082°27'0 0.0
2017-Nov-17 01:30N 27°55' W 082°27'0 0.0
2017-Nov-17 01:00N 27°55' W 082°27'0 0.0
2017-Nov-17 00:30N 27°55' W 082°27'0 0.0
2017-Nov-17 00:01N 27°55' W 082°27'0 0.0
2017-Nov-16 23:30N 27°55' W 082°27'0 0.8
2017-Nov-16 23:01N 27°55' W 082°27'0 0.4
2017-Nov-16 22:31N 27°55' W 082°27'0 0.6
2017-Nov-16 22:00N 27°55' W 082°27'0 0.0
2017-Nov-16 21:30N 27°55' W 082°27'0 0.0
2017-Nov-16 21:00N 27°55' W 082°27'0 0.0
2017-Nov-16 20:31N 27°55' W 082°27'0 0.0
2017-Nov-16 20:01N 27°55' W 082°27'0 0.0
2017-Nov-16 19:31N 27°55' W 082°27'0 0.0
2017-Nov-16 19:00N 27°55' W 082°27'1 1.4
2017-Nov-16 18:31N 27°55' W 082°27'5 9.6
2017-Nov-16 18:00N 27°50' W 082°27'5 9.1
2017-Nov-16 17:30N 27°47' W 082°31'4 7.1
2017-Nov-16 17:00N 27°49' W 082°34'3 5.6
2017-Nov-16 16:30N 27°52' W 082°33'0 0.0
2017-Nov-16 16:00N 27°52' W 082°33'0 0.0
2017-Nov-16 15:31N 27°52' W 082°33'0 0.0
2017-Nov-16 15:01N 27°52' W 082°33'0 0.0
2017-Nov-16 14:31N 27°52' W 082°33'0 0.0
2017-Nov-16 14:01N 27°52' W 082°33'0 0.0
2017-Nov-16 13:30N 27°52' W 082°33'0 0.0
2017-Nov-16 13:00N 27°52' W 082°33'0 0.0
2017-Nov-16 12:30N 27°52' W 082°33'0 0.0
2017-Nov-16 12:01N 27°52' W 082°33'0 0.0
2017-Nov-16 11:30N 27°52' W 082°33'0 0.0
2017-Nov-16 11:00N 27°52' W 082°33'0 0.0
2017-Nov-16 10:31N 27°52' W 082°33'0 0.0
2017-Nov-16 10:00N 27°52' W 082°33'0 0.0
2017-Nov-16 09:31N 27°52' W 082°33'0 0.0
2017-Nov-16 09:01N 27°52' W 082°33'0 0.0
2017-Nov-16 08:31N 27°52' W 082°33'0 0.0
2017-Nov-16 08:00N 27°52' W 082°33'0 0.0
2017-Nov-16 07:31N 27°52' W 082°33'0 0.0
2017-Nov-16 07:01N 27°52' W 082°33'0 0.0
2017-Nov-16 06:30N 27°52' W 082°33'0 0.4
2017-Nov-16 06:01N 27°52' W 082°33'0 0.0
2017-Nov-16 05:30N 27°52' W 082°33'1 2.9
2017-Nov-16 05:00N 27°50' W 082°34'4 7.6
2017-Nov-16 04:28N 27°47' W 082°31'510.0
2017-Nov-16 03:59N 27°51' W 082°27'510.0
2017-Nov-16 03:31N 27°55' W 082°27'0 0.1
2017-Nov-16 03:00N 27°55' W 082°27'0 0.0
2017-Nov-16 02:31N 27°55' W 082°27'0 0.0
2017-Nov-16 02:01N 27°55' W 082°27'0 0.0
2017-Nov-16 01:31N 27°55' W 082°27'0 0.0
2017-Nov-16 01:01N 27°55' W 082°27'0 0.0
2017-Nov-16 00:30N 27°55' W 082°27'0 0.0
2017-Nov-16 00:01N 27°55' W 082°27'0 0.0
2017-Nov-15 23:31N 27°55' W 082°27'1 2.4
2017-Nov-15 23:00N 27°54' W 082°26'1 2.7
2017-Nov-15 22:30N 27°55' W 082°25'1 1.4
2017-Nov-15 22:00N 27°55' W 082°26'3 5.8
2017-Nov-15 21:31N 27°52' W 082°27'3 6.5
2017-Nov-15 21:00N 27°49' W 082°26'2 1.3
2017-Nov-15 19:40N 27°48' W 082°25'0 0.9
2017-Nov-15 19:29N 27°48' W 082°25'4 8.0
2017-Nov-15 19:00N 27°48' W 082°29'5 7.0
2017-Nov-15 18:19N 27°50' W 082°34'2 5.1
2017-Nov-15 18:01N 27°52' W 082°33'0 0.0
2017-Nov-15 17:30N 27°52' W 082°33'0 0.0
2017-Nov-15 17:01N 27°52' W 082°33'0 0.0
2017-Nov-15 16:31N 27°52' W 082°33'0 0.0
2017-Nov-15 16:01N 27°52' W 082°33'0 0.0
2017-Nov-15 15:31N 27°52' W 082°33'0 0.0
2017-Nov-15 15:01N 27°52' W 082°33'0 0.0
2017-Nov-15 14:30N 27°52' W 082°33'0 0.5
2017-Nov-15 14:00N 27°52' W 082°33'0 0.0
2017-Nov-15 13:30N 27°52' W 082°33'2 2.4
2017-Nov-15 12:43N 27°50' W 082°34'1 4.0
2017-Nov-15 12:25N 27°49' W 082°34'4 8.6
2017-Nov-15 12:00N 27°47' W 082°31'5 9.9
2017-Nov-15 11:30N 27°51' W 082°27'5 9.1
2017-Nov-15 11:01N 27°55' W 082°27'0 0.2
2017-Nov-15 10:31N 27°55' W 082°27'0 0.1
2017-Nov-15 10:01N 27°55' W 082°27'0 0.5
2017-Nov-15 09:31N 27°55' W 082°27'0 0.0
2017-Nov-15 09:00N 27°55' W 082°27'0 0.0
2017-Nov-15 08:30N 27°55' W 082°27'0 0.0
2017-Nov-15 08:01N 27°55' W 082°27'0 0.0
2017-Nov-15 07:31N 27°55' W 082°27'0 0.0
2017-Nov-15 07:00N 27°55' W 082°27'0 0.0
2017-Nov-15 06:30N 27°55' W 082°27'0 0.0
2017-Nov-15 06:00N 27°55' W 082°27'0 0.0
2017-Nov-15 05:30N 27°55' W 082°27'0 0.0
2017-Nov-15 05:00N 27°55' W 082°27'0 0.0
2017-Nov-15 04:30N 27°55' W 082°27'0 0.0
2017-Nov-15 04:01N 27°55' W 082°27'0 0.0
2017-Nov-15 03:30N 27°55' W 082°27'0 0.0
2017-Nov-15 03:00N 27°55' W 082°27'0 0.0
2017-Nov-15 02:31N 27°55' W 082°27'0 0.0
2017-Nov-15 02:01N 27°55' W 082°27'1 1.2
2017-Nov-15 01:31N 27°55' W 082°27'611.1
2017-Nov-15 00:59N 27°49' W 082°27'2 2.0
2017-Nov-15 00:09N 27°48' W 082°25'211.3
2017-Nov-15 00:00N 27°49' W 082°27'610.2
2017-Nov-14 23:28N 27°45' W 082°32'11 0.3
2017-Nov-13 02:01N 27°55' W 082°27'0 0.0
2017-Nov-13 01:31N 27°55' W 082°27'0 0.0
2017-Nov-13 01:00N 27°55' W 082°27'0 0.0
2017-Nov-13 00:31N 27°55' W 082°27'0 0.0
2017-Nov-13 00:01N 27°55' W 082°27'0 0.0
2017-Nov-12 23:31N 27°55' W 082°27'0 0.0
2017-Nov-12 23:01N 27°55' W 082°27'0 0.0
2017-Nov-12 22:31N 27°55' W 082°27'0 0.0
2017-Nov-12 22:01N 27°55' W 082°27'0 0.0
2017-Nov-12 21:31N 27°55' W 082°27'0 0.0
2017-Nov-12 21:01N 27°55' W 082°27'0 0.0
2017-Nov-12 20:30N 27°55' W 082°27'0 0.0
2017-Nov-12 20:01N 27°55' W 082°27'0 0.0
2017-Nov-12 19:30N 27°55' W 082°27'0 0.0
2017-Nov-12 19:01N 27°55' W 082°27'0 0.0
2017-Nov-12 18:30N 27°55' W 082°27'0 0.0
2017-Nov-12 18:00N 27°55' W 082°27'0 0.0
2017-Nov-12 17:30N 27°55' W 082°27'0 0.0
2017-Nov-12 17:01N 27°55' W 082°27'0 0.0
2017-Nov-12 16:31N 27°55' W 082°27'0 0.0
2017-Nov-12 16:01N 27°55' W 082°27'0 0.0
2017-Nov-12 15:30N 27°55' W 082°27'0 0.0
2017-Nov-12 15:01N 27°55' W 082°27'0 0.0
2017-Nov-12 14:30N 27°55' W 082°27'0 0.0
2017-Nov-12 14:00N 27°55' W 082°27'0 0.0
2017-Nov-12 13:30N 27°55' W 082°27'0 0.0
2017-Nov-12 13:01N 27°55' W 082°27'0 0.0
2017-Nov-12 12:31N 27°55' W 082°27'0 0.0
2017-Nov-12 12:01N 27°55' W 082°27'0 0.0
2017-Nov-12 11:31N 27°55' W 082°27'0 0.0
2017-Nov-12 11:00N 27°55' W 082°27'0 0.0
2017-Nov-12 10:30N 27°55' W 082°27'0 0.0
2017-Nov-12 10:01N 27°55' W 082°27'0 0.0
2017-Nov-12 09:31N 27°55' W 082°27'0 0.0
2017-Nov-12 09:01N 27°55' W 082°27'0 0.0
2017-Nov-12 08:31N 27°55' W 082°27'0 0.0
2017-Nov-12 08:01N 27°55' W 082°27'0 0.0
2017-Nov-12 07:31N 27°55' W 082°27'0 0.0
2017-Nov-12 07:00N 27°55' W 082°27'0 0.0
2017-Nov-12 06:31N 27°55' W 082°27'0 0.0
2017-Nov-12 06:00N 27°55' W 082°27'0 0.0
2017-Nov-12 05:31N 27°55' W 082°27'0 0.0
2017-Nov-12 05:00N 27°55' W 082°27'0 0.0
2017-Nov-12 04:31N 27°55' W 082°27'0 0.0
2017-Nov-12 04:00N 27°55' W 082°27'0 0.0
2017-Nov-12 03:30N 27°55' W 082°27'0 0.0
2017-Nov-12 03:01N 27°55' W 082°27'0 0.0
2017-Nov-12 02:30N 27°55' W 082°27'0 0.0
2017-Nov-12 02:01N 27°55' W 082°27'0 0.0
2017-Nov-12 01:30N 27°55' W 082°27'0 0.0
2017-Nov-12 01:01N 27°55' W 082°27'0 0.0
2017-Nov-12 00:30N 27°55' W 082°27'0 0.0
2017-Nov-12 00:01N 27°55' W 082°27'0 0.0
2017-Nov-11 23:30N 27°55' W 082°27'0 0.0
2017-Nov-11 23:00N 27°55' W 082°27'0 0.0
2017-Nov-11 22:31N 27°55' W 082°27'0 0.6
2017-Nov-11 22:00N 27°55' W 082°27'0 0.0
2017-Nov-11 21:30N 27°55' W 082°27'0 0.0
2017-Nov-11 21:00N 27°55' W 082°27'0 0.0
2017-Nov-11 20:31N 27°55' W 082°27'0 0.0
2017-Nov-11 20:01N 27°55' W 082°27'0 0.0
2017-Nov-11 19:31N 27°55' W 082°27'0 0.0
2017-Nov-11 19:00N 27°55' W 082°27'0 0.0
2017-Nov-11 18:30N 27°55' W 082°27'0 0.0
2017-Nov-11 18:00N 27°55' W 082°27'0 0.1
2017-Nov-11 17:31N 27°55' W 082°27'1 1.3
2017-Nov-11 17:00N 27°55' W 082°26'4 7.5
2017-Nov-11 16:30N 27°51' W 082°26'3 2.9
2017-Nov-11 15:39N 27°51' W 082°24'0 2.4
2017-Nov-11 15:28N 27°51' W 082°24'0 0.0
2017-Nov-11 15:00N 27°51' W 082°24'3 5.7
2017-Nov-11 14:30N 27°50' W 082°27'5 9.4
2017-Nov-11 14:01N 27°54' W 082°26'0 0.0
2017-Nov-11 13:30N 27°54' W 082°26'0 0.0
2017-Nov-11 13:01N 27°54' W 082°26'0 0.0
2017-Nov-11 12:31N 27°54' W 082°26'0 0.0
2017-Nov-11 12:01N 27°54' W 082°26'0 0.0
2017-Nov-11 11:30N 27°54' W 082°26'0 0.0
2017-Nov-11 11:01N 27°54' W 082°26'1 1.1
2017-Nov-11 10:30N 27°55' W 082°26'1 2.6
2017-Nov-11 10:00N 27°53' W 082°26'1 1.2
2017-Nov-11 09:30N 27°53' W 082°27'2 4.8
2017-Nov-11 09:00N 27°55' W 082°27'0 0.2
2017-Nov-11 08:31N 27°55' W 082°27'0 0.0
2017-Nov-11 08:00N 27°55' W 082°27'0 0.0
2017-Nov-11 07:31N 27°55' W 082°27'0 0.0
2017-Nov-11 07:00N 27°55' W 082°27'0 0.0
2017-Nov-11 06:31N 27°55' W 082°27'0 0.0
2017-Nov-11 06:00N 27°55' W 082°27'0 0.0
2017-Nov-11 05:31N 27°55' W 082°27'0 0.0
2017-Nov-11 05:00N 27°55' W 082°27'0 0.0
2017-Nov-11 04:31N 27°55' W 082°27'0 0.0
2017-Nov-11 04:01N 27°55' W 082°27'0 0.0
2017-Nov-11 03:31N 27°55' W 082°27'0 0.0
2017-Nov-11 03:01N 27°55' W 082°27'0 0.0
2017-Nov-11 02:30N 27°55' W 082°27'0 0.0
2017-Nov-11 02:01N 27°55' W 082°27'0 0.0
2017-Nov-11 01:31N 27°55' W 082°27'0 0.0
2017-Nov-11 01:00N 27°55' W 082°27'0 0.0
2017-Nov-11 00:30N 27°55' W 082°27'0 0.0
2017-Nov-11 00:00N 27°55' W 082°27'0 0.0
2017-Nov-10 23:30N 27°55' W 082°27'0 0.0
2017-Nov-10 23:01N 27°55' W 082°27'0 0.0
2017-Nov-10 22:30N 27°55' W 082°27'0 0.0
2017-Nov-10 22:01N 27°55' W 082°27'0 0.0
2017-Nov-10 21:31N 27°55' W 082°27'1 2.0
2017-Nov-10 21:01N 27°54' W 082°26'5 8.8
2017-Nov-10 20:30N 27°50' W 082°27'3 3.5
2017-Nov-10 19:42N 27°48' W 082°25'1 3.5
2017-Nov-10 19:29N 27°48' W 082°25'610.9
2017-Nov-10 18:57N 27°47' W 082°31'5 0.3
2017-Nov-10 02:37N 27°42' W 082°33'1 8.7
2017-Nov-10 02:30N 27°43' W 082°33'4 8.0
2017-Nov-10 02:00N 27°47' W 082°31'4 7.7
2017-Nov-10 01:30N 27°48' W 082°27'4 7.8
2017-Nov-10 01:00N 27°52' W 082°27'  

Dump ship's entire track history